Time;durP1;ratioP1;P1;durP2;ratioP2;P2;SDS_P1;SDS_P2;PMS_P1;PMS_P2;Temp;Humidity;BMP_temperature;BMP_pressure;BME280_temperature;BME280_humidity;BME280_pressure;Samples;Min_cycle;Max_cycle;Signal;HPM_P1;HPM_P2
2022/10/06 00:02:15;;;;;;;3.20;1.53;;;13.70;99.90;;;;;;5112160;28;20214;-65
2022/10/06 00:04:41;;;;;;;3.10;1.70;;;13.70;99.90;;;;;;5112951;28;20435;-65
2022/10/06 00:07:06;;;;;;;2.70;1.47;;;13.60;99.90;;;;;;5112541;28;20911;-65
2022/10/06 00:09:32;;;;;;;6.97;1.77;;;13.60;99.90;;;;;;5112654;28;20650;-65
2022/10/06 00:11:58;;;;;;;16.63;2.70;;;13.50;99.90;;;;;;5112543;28;20205;-65
2022/10/06 00:14:25;;;;;;;4.83;2.10;;;13.50;99.90;;;;;;5100416;28;20314;-65
2022/10/06 00:16:50;;;;;;;4.43;1.40;;;13.60;99.90;;;;;;5091048;28;20550;-65
2022/10/06 00:19:16;;;;;;;1.60;0.97;;;13.60;99.90;;;;;;5094552;28;20469;-65
2022/10/06 00:21:41;;;;;;;3.57;1.77;;;13.70;99.90;;;;;;5105370;28;20194;-65
2022/10/06 00:24:07;;;;;;;3.87;1.37;;;13.70;99.90;;;;;;5098507;28;20183;-65
2022/10/06 00:26:33;;;;;;;1.70;1.00;;;13.80;99.90;;;;;;5101669;28;20565;-65
2022/10/06 00:28:59;;;;;;;4.87;1.80;;;13.80;99.90;;;;;;5112171;28;20180;-65
2022/10/06 00:31:25;;;;;;;5.17;1.50;;;13.80;99.90;;;;;;5106653;28;20427;-66
2022/10/06 00:33:51;;;;;;;2.00;1.30;;;13.90;99.90;;;;;;5091611;28;20267;-63
2022/10/06 00:36:16;;;;;;;10.00;1.27;;;13.80;99.90;;;;;;5098836;28;20200;-63
2022/10/06 00:38:42;;;;;;;2.03;1.10;;;13.80;99.90;;;;;;5084622;28;20215;-63
2022/10/06 00:41:12;;;;;;;2.70;1.13;;;13.90;99.90;;;;;;5109133;28;20180;-63
2022/10/06 00:43:53;;;;;;;2.43;1.00;;;14.00;99.90;;;;;;5094243;28;20795;-63
2022/10/06 00:46:19;;;;;;;2.33;1.20;;;14.00;99.90;;;;;;5097184;28;20498;-63
2022/10/06 00:48:50;;;;;;;3.00;1.10;;;14.00;99.90;;;;;;5105078;28;20504;-63
2022/10/06 00:51:16;;;;;;;6.70;1.40;;;14.10;99.90;;;;;;5112494;28;20513;-63
2022/10/06 00:53:42;;;;;;;4.23;1.40;;;14.00;99.90;;;;;;5098207;28;20426;-63
2022/10/06 00:56:07;;;;;;;2.90;1.30;;;13.90;99.90;;;;;;5098798;28;20176;-63
2022/10/06 00:58:33;;;;;;;4.90;2.97;;;13.90;99.90;;;;;;5104482;28;20672;-63
2022/10/06 01:00:59;;;;;;;2.10;0.97;;;13.90;99.90;;;;;;5104566;28;20267;-63
2022/10/06 01:03:32;;;;;;;3.43;1.50;;;13.90;99.90;;;;;;5091394;28;21037;-63
2022/10/06 01:06:00;;;;;;;4.57;1.03;;;13.90;99.90;;;;;;5082761;28;20173;-63
2022/10/06 01:08:27;;;;;;;4.23;1.40;;;13.90;99.90;;;;;;5106841;28;20410;-63
2022/10/06 01:10:53;;;;;;;4.23;1.30;;;14.00;99.90;;;;;;5104362;28;20411;-63
2022/10/06 01:13:19;;;;;;;2.53;1.13;;;14.00;99.90;;;;;;5105526;28;20481;-63
2022/10/06 01:15:58;;;;;;;3.50;1.80;;;14.00;99.90;;;;;;5102688;28;20189;-63
2022/10/06 01:18:26;;;;;;;10.13;1.50;;;14.00;99.90;;;;;;5101926;28;20545;-63
2022/10/06 01:21:13;;;;;;;3.97;1.37;;;13.90;99.90;;;;;;5102073;28;20476;-63
2022/10/06 01:23:39;;;;;;;1.87;0.80;;;13.90;99.90;;;;;;5111395;28;20414;-63
2022/10/06 01:26:09;;;;;;;2.80;1.10;;;13.80;99.90;;;;;;5111998;28;20417;-63
2022/10/06 01:28:36;;;;;;;6.70;1.00;;;13.70;99.90;;;;;;5085139;28;20295;-63
2022/10/06 01:31:03;;;;;;;3.60;1.90;;;13.70;99.90;;;;;;5098002;28;20446;-63
2022/10/06 01:33:29;;;;;;;2.57;1.03;;;13.60;99.90;;;;;;5104233;28;20438;-63
2022/10/06 01:35:55;;;;;;;2.77;1.33;;;13.60;99.90;;;;;;5109177;28;20432;-63
2022/10/06 01:38:21;;;;;;;3.07;1.20;;;13.60;99.90;;;;;;5095253;28;20226;-63
2022/10/06 01:40:49;;;;;;;2.30;1.23;;;13.50;99.90;;;;;;5109112;28;20247;-63
2022/10/06 01:43:15;;;;;;;3.77;1.63;;;13.50;99.90;;;;;;5102226;28;20210;-63
2022/10/06 01:45:40;;;;;;;3.47;1.07;;;13.30;99.90;;;;;;5089537;28;20463;-63
2022/10/06 01:48:06;;;;;;;6.20;1.90;;;13.30;99.90;;;;;;5114891;28;20180;-63
2022/10/06 01:50:32;;;;;;;4.47;1.30;;;13.20;99.90;;;;;;5115174;28;20175;-63
2022/10/06 01:52:57;;;;;;;4.67;1.30;;;13.10;99.90;;;;;;5115091;28;20176;-63
2022/10/06 01:55:24;;;;;;;2.00;1.00;;;13.00;99.90;;;;;;5101315;28;20173;-63
2022/10/06 01:57:49;;;;;;;5.40;1.40;;;12.90;99.90;;;;;;5100852;28;20179;-63
2022/10/06 02:00:15;;;;;;;2.60;1.20;;;12.70;99.90;;;;;;5094635;28;20464;-63
2022/10/06 02:02:42;;;;;;;2.67;1.57;;;12.60;99.90;;;;;;5087691;28;20246;-63
2022/10/06 02:05:08;;;;;;;5.70;1.23;;;12.50;99.90;;;;;;5088085;28;20411;-63
2022/10/06 02:07:34;;;;;;;2.20;1.20;;;12.40;99.90;;;;;;5115149;28;20920;-63
2022/10/06 02:10:00;;;;;;;2.00;1.20;;;12.30;99.90;;;;;;5115242;28;20435;-63
2022/10/06 02:12:26;;;;;;;4.97;1.63;;;12.30;99.90;;;;;;5089567;28;20923;-63
2022/10/06 02:14:51;;;;;;;1.80;1.03;;;12.30;99.90;;;;;;5107879;28;20262;-63
2022/10/06 02:17:17;;;;;;;4.73;1.30;;;12.20;99.90;;;;;;5094727;28;20196;-63
2022/10/06 02:19:42;;;;;;;3.50;1.43;;;12.20;99.90;;;;;;5100827;28;20664;-63
2022/10/06 02:22:08;;;;;;;3.37;1.63;;;12.10;99.90;;;;;;5113720;28;20203;-63
2022/10/06 02:24:34;;;;;;;2.30;1.23;;;12.10;99.90;;;;;;5114955;28;20187;-63
2022/10/06 02:26:59;;;;;;;3.10;1.27;;;12.00;99.90;;;;;;5114874;28;20255;-63
2022/10/06 02:29:25;;;;;;;2.20;1.20;;;11.90;99.90;;;;;;5114237;28;20198;-63
2022/10/06 02:31:51;;;;;;;1.90;1.00;;;11.80;99.90;;;;;;5100499;28;20542;-63
2022/10/06 02:34:16;;;;;;;2.23;1.13;;;11.80;99.90;;;;;;5114377;28;20225;-63
2022/10/06 02:36:42;;;;;;;3.00;1.20;;;11.70;99.90;;;;;;5108644;28;20184;-63
2022/10/06 02:39:08;;;;;;;5.30;1.30;;;11.70;99.90;;;;;;5094469;28;20208;-63
2022/10/06 02:41:33;;;;;;;2.80;1.53;;;11.60;99.90;;;;;;5107189;28;20184;-63
2022/10/06 02:43:59;;;;;;;1.90;1.00;;;11.60;99.90;;;;;;5093503;28;20181;-63
2022/10/06 02:46:25;;;;;;;3.33;1.30;;;11.70;99.90;;;;;;5090788;28;20184;-63
2022/10/06 02:48:52;;;;;;;4.13;1.37;;;11.70;99.90;;;;;;5107868;28;20720;-63
2022/10/06 02:51:21;;;;;;;1.90;1.23;;;11.70;99.90;;;;;;5114465;28;20204;-63
2022/10/06 02:53:48;;;;;;;2.77;1.63;;;11.80;99.90;;;;;;5113949;28;20425;-63
2022/10/06 02:56:19;;;;;;;2.97;1.57;;;11.90;99.90;;;;;;5106499;28;20900;-63
2022/10/06 02:58:46;;;;;;;5.00;1.50;;;11.80;99.90;;;;;;5101408;28;20472;-63
2022/10/06 03:01:16;;;;;;;2.27;1.37;;;11.80;99.90;;;;;;5113917;28;20449;-63
2022/10/06 03:03:42;;;;;;;3.20;1.33;;;11.80;99.90;;;;;;5111255;28;20421;-63
2022/10/06 03:06:37;;;;;;;8.50;1.77;;;12.00;99.90;;;;;;5093721;28;20528;-63
2022/10/06 03:09:05;;;;;;;4.30;1.53;;;12.20;99.90;;;;;;5075628;28;20781;-63
2022/10/06 03:11:35;;;;;;;3.30;1.23;;;12.30;99.90;;;;;;5106320;28;20436;-64
2022/10/06 03:14:01;;;;;;;6.90;1.93;;;12.40;99.90;;;;;;5106488;28;20444;-63
2022/10/06 03:16:32;;;;;;;2.20;1.20;;;12.50;99.90;;;;;;5085658;28;20455;-63
2022/10/06 03:18:58;;;;;;;7.57;2.03;;;12.50;99.90;;;;;;5100578;28;20846;-64
2022/10/06 03:21:30;;;;;;;3.80;1.40;;;12.50;99.90;;;;;;5106896;28;20425;-63
2022/10/06 03:23:57;;;;;;;2.00;1.07;;;12.60;99.90;;;;;;5101638;28;20795;-63
2022/10/06 03:26:34;;;;;;;3.00;1.50;;;12.60;99.90;;;;;;5113592;28;20614;-63
2022/10/06 03:29:00;;;;;;;2.17;1.10;;;12.60;99.90;;;;;;5113105;28;20762;-63
2022/10/06 03:31:27;;;;;;;3.00;1.60;;;12.60;99.90;;;;;;5109908;28;20868;-63
2022/10/06 03:33:55;;;;;;;2.20;1.10;;;12.60;99.90;;;;;;5103216;28;20762;-63
2022/10/06 03:36:22;;;;;;;2.03;1.00;;;12.70;99.90;;;;;;5080254;28;20432;-64
2022/10/06 03:38:48;;;;;;;3.20;1.63;;;12.60;99.90;;;;;;5090401;28;20941;-63
2022/10/06 03:41:20;;;;;;;7.53;2.07;;;12.50;99.90;;;;;;5090872;28;20429;-63
2022/10/06 03:43:48;;;;;;;3.70;1.57;;;12.40;99.90;;;;;;5103944;28;20211;-63
2022/10/06 03:46:17;;;;;;;2.60;1.53;;;12.40;99.90;;;;;;5093663;28;20906;-63
2022/10/06 03:48:43;;;;;;;3.70;1.70;;;12.30;99.90;;;;;;5105669;28;20425;-63
2022/10/06 03:51:15;;;;;;;4.60;1.73;;;12.30;99.90;;;;;;5107093;28;20425;-63
2022/10/06 03:53:43;;;;;;;2.60;1.50;;;12.20;99.90;;;;;;5105932;28;20823;-63
2022/10/06 03:56:12;;;;;;;2.43;1.47;;;12.20;99.90;;;;;;5078934;28;20413;-64
2022/10/06 03:58:40;;;;;;;5.10;1.70;;;12.20;99.90;;;;;;5082425;28;20553;-65
2022/10/06 04:01:29;;;;;;;2.10;1.07;;;12.10;99.90;;;;;;5085861;28;20830;-64
2022/10/06 04:03:56;;;;;;;3.00;1.37;;;12.10;99.90;;;;;;5074779;28;20462;-65
2022/10/06 04:06:22;;;;;;;3.40;1.87;;;12.10;99.90;;;;;;5081387;28;20409;-64
2022/10/06 04:08:49;;;;;;;3.57;1.57;;;11.90;99.90;;;;;;5086345;28;20907;-65
2022/10/06 04:11:20;;;;;;;7.73;1.33;;;11.70;99.90;;;;;;5083691;28;20524;-65
2022/10/06 04:13:47;;;;;;;5.23;1.63;;;11.70;99.90;;;;;;5088207;28;20421;-65
2022/10/06 04:16:21;;;;;;;5.10;1.80;;;11.60;99.90;;;;;;5083691;28;20510;-65
2022/10/06 04:18:52;;;;;;;2.53;1.43;;;11.60;99.90;;;;;;5085951;28;20450;-65
2022/10/06 04:21:18;;;;;;;2.27;1.30;;;11.50;99.90;;;;;;5086197;28;20415;-65
2022/10/06 04:23:44;;;;;;;2.03;1.30;;;11.50;99.90;;;;;;5083764;28;20435;-65
2022/10/06 04:26:18;;;;;;;1.80;1.30;;;11.50;99.90;;;;;;5079730;28;20450;-65
2022/10/06 04:28:44;;;;;;;2.80;1.73;;;11.40;99.90;;;;;;5083217;28;20541;-65
2022/10/06 04:31:22;;;;;;;8.10;1.40;;;11.40;99.90;;;;;;5092130;28;20903;-64
2022/10/06 04:33:51;;;;;;;2.30;1.53;;;11.30;99.90;;;;;;5102515;28;20413;-64
2022/10/06 04:36:26;;;;;;;8.63;1.80;;;11.20;99.90;;;;;;5112409;28;20554;-64
2022/10/06 04:38:57;;;;;;;5.07;2.07;;;11.20;99.90;;;;;;5100029;28;20542;-64
2022/10/06 04:41:25;;;;;;;3.40;1.37;;;11.20;99.90;;;;;;5097461;28;20433;-64
2022/10/06 04:43:51;;;;;;;3.03;1.57;;;11.10;99.90;;;;;;5088709;28;20419;-64
2022/10/06 04:46:19;;;;;;;4.33;2.07;;;11.00;99.90;;;;;;5087124;28;20426;-64
2022/10/06 04:48:44;;;;;;;15.73;4.50;;;11.00;99.90;;;;;;5089107;28;20423;-64
2022/10/06 04:51:12;;;;;;;12.50;5.00;;;11.00;99.90;;;;;;5083044;28;20481;-64
2022/10/06 04:53:38;;;;;;;10.00;4.77;;;10.90;99.90;;;;;;5100847;28;20191;-64
2022/10/06 04:56:06;;;;;;;9.53;4.50;;;10.90;99.90;;;;;;5105963;28;20421;-64
2022/10/06 04:58:36;;;;;;;4.93;3.20;;;10.80;99.90;;;;;;5090996;28;20204;-64
2022/10/06 05:01:03;;;;;;;6.40;2.67;;;10.80;99.90;;;;;;5085071;28;20426;-64
2022/10/06 05:03:30;;;;;;;7.80;3.23;;;10.70;99.90;;;;;;5083208;28;20442;-64
2022/10/06 05:06:07;;;;;;;7.50;3.30;;;10.70;99.90;;;;;;5086184;28;20437;-64
2022/10/06 05:08:33;;;;;;;9.23;3.93;;;10.70;99.90;;;;;;5082913;28;20498;-64
2022/10/06 05:11:05;;;;;;;6.50;3.30;;;10.60;99.90;;;;;;5082957;28;20411;-64
2022/10/06 05:13:31;;;;;;;7.60;3.20;;;10.60;99.90;;;;;;5104787;28;20473;-64
2022/10/06 05:15:58;;;;;;;11.33;3.37;;;10.50;99.90;;;;;;5095594;28;20434;-64
2022/10/06 05:18:24;;;;;;;3.93;2.40;;;10.50;99.90;;;;;;5095284;28;20204;-64
2022/10/06 05:21:03;;;;;;;7.03;2.83;;;10.50;99.90;;;;;;5095878;28;20495;-64
2022/10/06 05:23:30;;;;;;;6.47;2.97;;;10.50;99.90;;;;;;5113865;28;20420;-64
2022/10/06 05:25:57;;;;;;;5.17;2.40;;;10.50;99.90;;;;;;5115567;28;20911;-64
2022/10/06 05:28:24;;;;;;;3.70;2.17;;;10.60;99.90;;;;;;5114806;28;20445;-64
2022/10/06 05:31:00;;;;;;;4.73;2.33;;;10.60;99.90;;;;;;5115302;28;20416;-65
2022/10/06 05:33:28;;;;;;;3.87;2.30;;;10.60;99.90;;;;;;5111117;28;20413;-64
2022/10/06 05:35:56;;;;;;;3.57;2.27;;;10.70;99.90;;;;;;5086391;28;20422;-64
2022/10/06 05:38:22;;;;;;;5.33;2.93;;;10.70;99.90;;;;;;5085860;28;20449;-64
2022/10/06 05:40:48;;;;;;;6.67;2.27;;;10.70;99.90;;;;;;5089535;28;21003;-64
2022/10/06 05:43:16;;;;;;;4.20;2.17;;;10.80;99.90;;;;;;5088023;28;20916;-64
2022/10/06 05:45:52;;;;;;;5.27;2.50;;;10.80;99.90;;;;;;5087197;28;20415;-64
2022/10/06 05:48:17;;;;;;;6.90;2.70;;;10.80;99.90;;;;;;5088641;28;20544;-63
2022/10/06 05:50:43;;;;;;;3.37;2.13;;;10.90;99.90;;;;;;5090081;28;20453;-64
2022/10/06 05:53:09;;;;;;;3.80;2.20;;;10.90;99.90;;;;;;5104874;28;20176;-64
2022/10/06 05:55:34;;;;;;;3.37;1.83;;;11.00;99.90;;;;;;5097120;28;20287;-63
2022/10/06 05:58:00;;;;;;;3.93;1.83;;;11.00;99.90;;;;;;5117258;28;20525;-64
2022/10/06 06:00:26;;;;;;;4.97;2.23;;;11.10;99.90;;;;;;5116851;28;20192;-64
2022/10/06 06:02:51;;;;;;;4.73;2.20;;;11.20;99.90;;;;;;5105012;28;20521;-64
2022/10/06 06:05:17;;;;;;;7.23;2.63;;;11.20;99.90;;;;;;5111228;28;20184;-64
2022/10/06 06:07:42;;;;;;;13.00;3.33;;;11.30;99.90;;;;;;5085951;28;20175;-64
2022/10/06 06:10:08;;;;;;;7.00;1.90;;;11.30;99.90;;;;;;5104185;28;20176;-64
2022/10/06 06:12:34;;;;;;;4.77;2.23;;;11.40;99.90;;;;;;5088020;28;20177;-65
2022/10/06 06:17:43;;;;;;;3.60;2.53;;;11.50;99.90;;;;;;5084279;28;20532;-65
2022/10/06 06:20:09;;;;;;;3.43;1.90;;;11.50;99.90;;;;;;5084975;28;20558;-66
2022/10/06 06:22:35;;;;;;;7.30;3.47;;;11.50;99.90;;;;;;5099480;28;20250;-66
2022/10/06 06:25:00;;;;;;;4.30;2.00;;;11.50;99.90;;;;;;5101226;28;20203;-66
2022/10/06 06:27:26;;;;;;;8.67;2.20;;;11.50;99.90;;;;;;5110248;28;20199;-66
2022/10/06 06:29:52;;;;;;;13.13;2.40;;;11.60;99.90;;;;;;5100356;28;20209;-66
2022/10/06 06:32:17;;;;;;;4.07;2.27;;;11.60;99.90;;;;;;5113484;28;20193;-66
2022/10/06 06:34:43;;;;;;;9.67;2.90;;;11.70;99.90;;;;;;5113543;28;20610;-66
2022/10/06 06:37:09;;;;;;;3.17;2.00;;;11.90;99.90;;;;;;5102969;28;20180;-66
2022/10/06 06:39:35;;;;;;;5.13;2.17;;;11.80;99.90;;;;;;5093511;28;20202;-66
2022/10/06 06:42:03;;;;;;;8.40;2.07;;;11.90;99.90;;;;;;5091696;28;20418;-66
2022/10/06 06:44:29;;;;;;;4.77;2.43;;;12.00;99.90;;;;;;5096075;28;20176;-66
2022/10/06 06:46:55;;;;;;;8.50;2.70;;;12.10;99.90;;;;;;5083733;28;20431;-66
2022/10/06 06:49:21;;;;;;;5.40;2.03;;;12.20;99.90;;;;;;5082209;28;20435;-66
2022/10/06 06:51:48;;;;;;;3.60;1.60;;;12.30;99.90;;;;;;5081350;28;20185;-66
2022/10/06 06:54:15;;;;;;;6.60;2.00;;;12.40;99.90;;;;;;5087932;28;20422;-66
2022/10/06 06:56:41;;;;;;;5.27;2.03;;;12.60;99.90;;;;;;5082486;28;20502;-66
2022/10/06 06:59:10;;;;;;;3.80;2.17;;;12.70;99.90;;;;;;5055655;28;20473;-66
2022/10/06 07:01:37;;;;;;;5.57;2.63;;;12.80;99.90;;;;;;5083011;28;20442;-66
2022/10/06 07:04:04;;;;;;;6.37;2.07;;;13.00;99.90;;;;;;5084028;28;20430;-66
2022/10/06 07:06:30;;;;;;;3.87;2.23;;;13.20;99.90;;;;;;5082417;28;20411;-66
2022/10/06 07:08:58;;;;;;;3.50;1.80;;;13.30;99.90;;;;;;5083406;28;20422;-66
2022/10/06 07:11:34;;;;;;;3.93;2.07;;;13.40;99.90;;;;;;5079011;28;20497;-66
2022/10/06 07:14:08;;;;;;;4.07;2.10;;;13.50;99.90;;;;;;5084095;28;20414;-66
2022/10/06 07:25:06;;;;;;;5.50;1.90;;;14.00;99.90;;;;;;5089172;28;20447;-67
2022/10/06 07:27:42;;;;;;;3.40;1.80;;;14.10;99.90;;;;;;5084051;28;20442;-66
2022/10/06 07:30:10;;;;;;;3.63;1.80;;;14.20;99.90;;;;;;5089725;28;20416;-67
2022/10/06 07:32:36;;;;;;;4.87;1.50;;;14.20;99.90;;;;;;5083332;28;20435;-65
2022/10/06 07:35:03;;;;;;;7.70;1.90;;;14.30;99.90;;;;;;5089169;28;20422;-65
2022/10/06 07:37:29;;;;;;;3.07;1.40;;;14.30;99.90;;;;;;5089467;28;20411;-64
2022/10/06 07:39:55;;;;;;;6.97;1.83;;;14.40;99.90;;;;;;5089888;28;20465;-65
2022/10/06 07:42:20;;;;;;;3.83;2.03;;;14.40;99.90;;;;;;5079310;28;20871;-65
2022/10/06 07:45:36;;;;;;;3.57;1.87;;;14.40;99.90;;;;;;5084528;28;20251;-65
2022/10/06 07:47:32;;;;;;;2.40;1.33;;;14.50;99.90;;;;;;5080995;28;20968;-65
2022/10/06 07:49:58;;;;;;;5.33;1.77;;;14.60;99.90;;;;;;5081596;28;20431;-68
2022/10/06 07:52:27;;;;;;;3.30;1.70;;;14.70;99.90;;;;;;5087193;28;20448;-67
2022/10/06 07:54:54;;;;;;;11.83;1.53;;;14.80;99.90;;;;;;5084720;28;20561;-66
2022/10/06 07:57:20;;;;;;;2.03;0.97;;;14.90;99.90;;;;;;5086596;28;20738;-68
2022/10/06 07:59:45;;;;;;;5.87;1.50;;;15.00;99.90;;;;;;5081568;28;21016;-66
2022/10/06 08:02:11;;;;;;;2.70;1.50;;;15.00;99.90;;;;;;5081434;28;20440;-68
2022/10/06 08:04:37;;;;;;;2.17;1.10;;;15.00;99.90;;;;;;5067396;28;20180;-67
2022/10/06 08:07:03;;;;;;;7.20;1.37;;;15.10;99.90;;;;;;5096923;28;20173;-69
2022/10/06 08:09:29;;;;;;;5.40;1.20;;;15.10;99.90;;;;;;5103291;28;20182;-67
2022/10/06 08:11:55;;;;;;;2.47;1.27;;;15.00;99.90;;;;;;5106498;28;20421;-67
2022/10/06 08:14:22;;;;;;;2.77;1.23;;;15.10;99.90;;;;;;5105257;28;20444;-67
2022/10/06 08:16:48;;;;;;;8.30;1.70;;;15.10;99.90;;;;;;5097272;28;20645;-66
2022/10/06 08:19:16;;;;;;;14.17;1.50;;;15.10;99.90;;;;;;5102695;28;20454;-68
2022/10/06 08:21:42;;;;;;;2.53;1.13;;;15.00;99.90;;;;;;5099491;28;20176;-66
2022/10/06 08:24:08;;;;;;;4.23;1.00;;;15.00;99.90;;;;;;5102380;28;20418;-66
2022/10/06 08:26:34;;;;;;;2.83;1.40;;;15.10;99.90;;;;;;5098218;28;20172;-66
2022/10/06 08:29:01;;;;;;;5.10;1.47;;;15.10;99.90;;;;;;5094374;28;20892;-67
2022/10/06 08:31:29;;;;;;;6.50;1.30;;;15.20;99.90;;;;;;5105167;28;20426;-66
2022/10/06 08:33:55;;;;;;;2.53;1.30;;;15.30;99.90;;;;;;5101484;28;20418;-66
2022/10/06 08:36:23;;;;;;;3.47;1.40;;;15.40;99.90;;;;;;5099568;28;20422;-66
2022/10/06 08:38:51;;;;;;;6.50;1.60;;;15.40;99.90;;;;;;5090659;28;20527;-67
2022/10/06 08:41:20;;;;;;;2.33;1.30;;;15.40;99.90;;;;;;5096649;28;20430;-67
2022/10/06 08:44:18;;;;;;;5.70;1.10;;;15.60;99.90;;;;;;5077954;28;20415;-66
2022/10/06 08:47:12;;;;;;;2.00;0.90;;;15.90;99.90;;;;;;5073516;28;20411;-67
2022/10/06 08:49:43;;;;;;;1.80;0.90;;;16.10;99.90;;;;;;5103536;28;20795;-67
2022/10/06 08:52:24;;;;;;;5.33;1.20;;;16.20;99.90;;;;;;5077322;28;20403;-67
2022/10/06 08:55:15;;;;;;;4.63;1.30;;;16.20;99.90;;;;;;5081572;28;20415;-67
2022/10/06 08:58:20;;;;;;;1.73;0.80;;;16.20;99.90;;;;;;5045807;28;20423;-67
2022/10/06 09:00:46;;;;;;;2.63;1.03;;;16.20;99.90;;;;;;5078192;28;20953;-67
2022/10/06 09:03:22;;;;;;;1.70;0.80;;;16.20;99.90;;;;;;5095933;28;20439;-67
2022/10/06 09:05:51;;;;;;;1.93;0.70;;;16.20;99.90;;;;;;5078069;28;20558;-66
2022/10/06 09:08:32;;;;;;;3.63;0.77;;;16.10;99.90;;;;;;5078039;28;20441;-66
2022/10/06 09:11:03;;;;;;;1.87;0.80;;;16.00;99.90;;;;;;5079926;28;20398;-67
2022/10/06 09:13:42;;;;;;;3.93;1.07;;;16.00;99.90;;;;;;5092425;28;20421;-67
2022/10/06 09:16:18;;;;;;;4.03;1.07;;;16.10;99.90;;;;;;5100942;28;20432;-66
2022/10/06 09:18:48;;;;;;;8.87;1.30;;;16.00;99.90;;;;;;5071706;28;20461;-66
2022/10/06 09:21:18;;;;;;;2.43;0.80;;;16.10;99.90;;;;;;5090806;28;20998;-66
2022/10/06 09:23:55;;;;;;;1.90;1.13;;;16.10;99.90;;;;;;5070523;28;20924;-66
2022/10/06 09:26:28;;;;;;;1.70;0.90;;;16.20;99.90;;;;;;5075827;28;20415;-67
2022/10/06 09:28:56;;;;;;;2.13;0.80;;;16.20;99.90;;;;;;5079495;28;20429;-67
2022/10/06 09:31:21;;;;;;;2.83;1.10;;;16.20;99.90;;;;;;5077692;28;20469;-67
2022/10/06 09:33:50;;;;;;;12.97;1.00;;;16.20;99.90;;;;;;5090726;28;20414;-67
2022/10/06 09:36:16;;;;;;;1.70;0.83;;;16.30;99.90;;;;;;5077463;28;20195;-68
2022/10/06 09:38:58;;;;;;;2.73;1.03;;;16.30;99.90;;;;;;5086795;28;20479;-67
2022/10/06 09:41:24;;;;;;;16.20;1.50;;;16.20;99.90;;;;;;5079052;28;20271;-67
2022/10/06 09:43:52;;;;;;;1.87;0.60;;;16.30;99.90;;;;;;5078128;28;20511;-67
2022/10/06 09:46:33;;;;;;;1.80;0.80;;;16.40;99.90;;;;;;5088746;28;20189;-67
2022/10/06 09:49:06;;;;;;;4.73;1.63;;;16.50;99.90;;;;;;5103037;28;20425;-67
2022/10/06 09:51:35;;;;;;;2.53;0.93;;;16.60;99.90;;;;;;5081657;28;20427;-67
2022/10/06 09:54:14;;;;;;;3.70;0.90;;;16.70;99.90;;;;;;5084276;28;20764;-67
2022/10/06 09:56:42;;;;;;;4.07;1.03;;;16.70;99.90;;;;;;5085344;28;20425;-67
2022/10/06 09:59:22;;;;;;;2.80;1.30;;;16.60;99.90;;;;;;5080476;28;20939;-67
2022/10/06 10:01:54;;;;;;;2.60;0.87;;;16.60;99.90;;;;;;5080493;28;20946;-67
2022/10/06 10:04:32;;;;;;;2.00;0.90;;;16.60;99.90;;;;;;5088775;28;20459;-67
2022/10/06 10:07:25;;;;;;;2.00;0.97;;;16.70;99.90;;;;;;5085803;28;20937;-67
2022/10/06 10:09:53;;;;;;;3.43;0.70;;;17.00;99.90;;;;;;5083231;28;20461;-66
2022/10/06 10:12:23;;;;;;;1.50;0.67;;;17.00;99.90;;;;;;5082712;28;20422;-66
2022/10/06 10:14:49;;;;;;;18.03;1.30;;;17.10;99.90;;;;;;5081026;28;20427;-67
2022/10/06 10:17:45;;;;;;;4.70;1.13;;;17.20;99.90;;;;;;5083678;28;20833;-66
2022/10/06 10:20:34;;;;;;;2.13;0.93;;;17.60;99.90;;;;;;5088888;28;20486;-67
2022/10/06 10:23:22;;;;;;;2.40;1.00;;;17.70;99.90;;;;;;5078440;28;20440;-66
2022/10/06 10:26:14;;;;;;;3.87;1.00;;;18.10;98.80;;;;;;5067178;28;20419;-66
2022/10/06 10:29:16;;;;;;;13.93;1.30;;;18.10;98.80;;;;;;5062745;28;21084;-67
2022/10/06 10:31:47;;;;;;;3.30;1.10;;;18.20;98.80;;;;;;5093388;28;20505;-66
2022/10/06 10:34:45;;;;;;;1.87;0.80;;;18.20;98.10;;;;;;5107108;28;20517;-66
2022/10/06 10:37:16;;;;;;;2.00;0.80;;;18.00;98.50;;;;;;5073667;28;20423;-66
2022/10/06 10:39:51;;;;;;;1.77;0.93;;;18.00;98.40;;;;;;5087870;28;20478;-66
2022/10/06 10:42:33;;;;;;;2.00;0.70;;;18.00;98.10;;;;;;5102377;28;20448;-67
2022/10/06 10:45:01;;;;;;;2.93;0.97;;;17.80;98.80;;;;;;5100747;28;20571;-66
2022/10/06 10:47:36;;;;;;;2.27;0.67;;;17.80;99.20;;;;;;5091990;28;20532;-65
2022/10/06 10:50:24;;;;;;;4.17;1.20;;;17.80;98.70;;;;;;5087097;28;20417;-65
2022/10/06 10:52:54;;;;;;;1.53;0.77;;;17.80;98.40;;;;;;5091405;28;20422;-66
2022/10/06 10:55:34;;;;;;;2.80;1.20;;;17.60;99.60;;;;;;5091593;28;20461;-66
2022/10/06 10:58:27;;;;;;;5.83;0.93;;;17.50;99.90;;;;;;5087220;28;20930;-65
2022/10/06 11:01:24;;;;;;;3.60;1.20;;;17.40;99.80;;;;;;5097319;28;20429;-65
2022/10/06 11:03:55;;;;;;;3.60;1.60;;;17.30;99.90;;;;;;5069205;28;20454;-65
2022/10/06 11:06:35;;;;;;;3.37;1.27;;;17.30;99.90;;;;;;5082539;28;20505;-66
2022/10/06 11:09:20;;;;;;;2.20;1.00;;;17.10;99.90;;;;;;5108593;28;20439;-66
2022/10/06 11:11:54;;;;;;;1.87;0.87;;;17.00;99.90;;;;;;5110000;28;20413;-66
2022/10/06 11:14:22;;;;;;;7.97;1.23;;;16.80;99.90;;;;;;5092758;28;20432;-66
2022/10/06 11:17:07;;;;;;;3.50;1.13;;;16.70;99.90;;;;;;5094269;28;20568;-65
2022/10/06 11:20:07;;;;;;;4.20;1.57;;;16.60;99.90;;;;;;5097200;28;20553;-66
2022/10/06 11:23:07;;;;;;;3.23;1.13;;;16.60;99.90;;;;;;5082603;28;20449;-66
2022/10/06 11:25:42;;;;;;;9.13;1.10;;;16.80;99.90;;;;;;5082773;28;20398;-65
2022/10/06 11:28:23;;;;;;;1.90;0.90;;;17.30;99.90;;;;;;5086223;28;20516;-65
2022/10/06 11:31:10;;;;;;;4.70;1.17;;;17.70;99.90;;;;;;5080902;28;20423;-65
2022/10/06 11:33:59;;;;;;;4.70;1.40;;;18.20;99.40;;;;;;5084142;28;20522;-65
2022/10/06 11:36:28;;;;;;;3.10;1.17;;;18.40;98.20;;;;;;5081915;28;20592;-65
2022/10/06 11:39:01;;;;;;;3.83;0.93;;;18.60;98.40;;;;;;5081337;28;20498;-66
2022/10/06 11:41:37;;;;;;;13.93;1.17;;;18.80;97.70;;;;;;5099390;28;20555;-65
2022/10/06 11:44:12;;;;;;;3.27;0.80;;;19.00;96.90;;;;;;5106865;28;20428;-65
2022/10/06 11:46:37;;;;;;;2.23;0.80;;;19.00;97.00;;;;;;5094239;28;20730;-65
2022/10/06 11:49:28;;;;;;;5.70;1.70;;;18.70;98.10;;;;;;5086016;28;20442;-66
2022/10/06 11:52:13;;;;;;;4.00;0.90;;;18.50;97.80;;;;;;5079278;28;20185;-66
2022/10/06 11:54:39;;;;;;;2.07;1.07;;;18.50;98.00;;;;;;5076258;28;20442;-66
2022/10/06 11:57:54;;;;;;;1.83;0.80;;;18.50;97.80;;;;;;5091622;28;20441;-66
2022/10/06 12:00:19;;;;;;;2.57;0.73;;;18.90;97.60;;;;;;5082035;28;20231;-66
2022/10/06 12:02:45;;;;;;;4.67;1.43;;;19.10;96.60;;;;;;5099430;28;20430;-66
2022/10/06 12:05:12;;;;;;;2.07;0.80;;;19.20;96.80;;;;;;5110019;28;20898;-66
2022/10/06 12:07:56;;;;;;;2.93;0.90;;;19.40;96.00;;;;;;5097973;28;20417;-65
2022/10/06 12:10:27;;;;;;;1.80;0.63;;;19.30;96.10;;;;;;5110877;28;20424;-65
2022/10/06 12:12:56;;;;;;;1.77;0.90;;;19.40;96.00;;;;;;5099985;28;20418;-65
2022/10/06 12:15:35;;;;;;;2.70;0.93;;;19.30;96.50;;;;;;5091583;28;20948;-65
2022/10/06 12:18:00;;;;;;;3.40;1.27;;;19.10;96.10;;;;;;5076621;28;20841;-65
2022/10/06 12:21:05;;;;;;;4.10;1.10;;;18.80;96.60;;;;;;5081342;28;20985;-65
2022/10/06 12:23:49;;;;;;;4.40;1.03;;;18.50;96.70;;;;;;5084201;28;20241;-65
2022/10/06 12:26:48;;;;;;;8.70;1.37;;;18.20;97.20;;;;;;5080274;28;20480;-65
2022/10/06 12:29:49;;;;;;;26.73;1.63;;;18.00;98.00;;;;;;5079721;28;20418;-65
2022/10/06 12:32:33;;;;;;;2.83;0.93;;;18.00;97.60;;;;;;5093083;28;20481;-65
2022/10/06 12:35:17;;;;;;;1.60;0.70;;;17.90;97.70;;;;;;5091079;28;20813;-65
2022/10/06 12:37:48;;;;;;;4.10;0.80;;;17.80;98.30;;;;;;5086965;28;20422;-65
2022/10/06 12:40:48;;;;;;;2.70;0.90;;;17.70;98.80;;;;;;5090162;28;20489;-65
2022/10/06 12:43:16;;;;;;;4.27;1.20;;;17.60;99.30;;;;;;5079432;28;20828;-65
2022/10/06 12:46:11;;;;;;;5.17;1.20;;;17.60;99.50;;;;;;5080347;28;20453;-65
2022/10/06 12:48:43;;;;;;;3.03;0.87;;;17.70;98.50;;;;;;5080407;28;20743;-65
2022/10/06 12:51:19;;;;;;;5.30;1.17;;;17.70;98.80;;;;;;5086496;28;20468;-65
2022/10/06 12:54:00;;;;;;;1.70;0.73;;;17.70;98.50;;;;;;5083932;28;20415;-65
2022/10/06 12:56:30;;;;;;;1.90;0.83;;;17.80;98.00;;;;;;5097331;28;20902;-65
2022/10/06 12:58:55;;;;;;;5.13;1.13;;;17.70;98.60;;;;;;5088437;28;20526;-65
2022/10/06 13:01:22;;;;;;;2.90;0.97;;;17.80;98.00;;;;;;5082726;28;20435;-65
2022/10/06 13:03:49;;;;;;;2.73;1.00;;;18.00;97.50;;;;;;5087833;28;20191;-66
2022/10/06 13:06:21;;;;;;;8.03;1.10;;;17.80;98.80;;;;;;5099383;28;20420;-65
2022/10/06 13:09:03;;;;;;;1.80;0.83;;;17.80;99.10;;;;;;5086947;28;20417;-65
2022/10/06 13:11:29;;;;;;;5.57;1.33;;;17.90;98.80;;;;;;5079885;28;20415;-65
2022/10/06 13:13:59;;;;;;;5.13;1.30;;;18.00;98.80;;;;;;5076658;28;20951;-65
2022/10/06 13:16:35;;;;;;;2.17;0.87;;;17.80;99.00;;;;;;5083623;28;20181;-65
2022/10/06 13:19:00;;;;;;;4.80;1.03;;;18.00;99.00;;;;;;5077382;28;20854;-66